Nearby METAR Reports

 

KSJC - San Jose, California, USA
Distance from station: NE 9mi, 14km
Updated: Tue, 21-Sep-2021 7:53pm CDT
Partly cloudy
Partly cloudy
 Wind from NNW
Wind: NNW 12 mph , 19 km/h
Temperature: 88°F , 31°C
Dew Point: 48°F , 9°C
Humidity: 25%
Barometer: 30.02 inHg , 1016.6 hPa
Clouds: Partly cloudy
Visibility: 10 miles , 16 km
Cloud details: Few Clouds 2500 ft
Partly cloudy 5000 ft
2021/09/22 00:53 KSJC 220053Z 33010KT 10SM FEW025 SCT050 31/09 A3002 RMK AO2 SLP163 FU FEW025 FU SCT050 T03060089
KNUQ - Moffett Nas/Mtn, California, USA
Distance from station: N 9mi, 14km
Updated: Sun, 22-Aug-2021 6:40am CDT
NOT Current
Overcast
Overcast
 Wind from SSE
Wind: SSE 7 mph , 11 km/h
Temperature: 61°F , 16°C
Dew Point: 54°F , 12°C
Humidity: 77%
Barometer: 29.82 inHg , 1009.8 hPa
Clouds: Overcast
Visibility: 10 miles , 16 km
Cloud details: Overcast 1800 ft
2021/08/22 11:40 KNUQ 221140Z AUTO 16006KT 10SM OVC018 16/12 A2982 RMK AO2
 
KPAO - Palo Alto, California, USA
Distance from station: NNW 14mi, 23km
Updated: Tue, 21-Sep-2021 7:47pm CDT
Clear
Clear
 Wind from N
Wind: N 16 mph , 26 km/h
Temperature: 81°F , 27°C
Heat Index: 81°F , 27°C
Dew Point: 57°F , 14°C
Humidity: 45%
Barometer: 30.02 inHg , 1016.6 hPa
Clouds: Clear
Visibility: 10 miles , 16 km
2021/09/22 00:47 KPAO 220047Z 35014KT 10SM SKC 27/14 A3002
KRHV - San Jose/Reid, California, USA
Distance from station: ENE 12mi, 19km
Updated: Tue, 21-Sep-2021 8:47pm CDT
Clear
Clear
 Wind from WNW
Wind: WNW 8 mph , 13 km/h
Temperature: 86°F , 30°C
Dew Point: 48°F , 9°C
Humidity: 27%
Barometer: 30.03 inHg , 1016.9 hPa
Clouds: Clear
Visibility: 10 miles , 16 km
2021/09/22 01:47 KRHV 220147Z 29007KT 10SM SKC 30/09 A3003
 
KOAK - Oakland, California, USA
Distance from station: NNW 31mi, 50km
Updated: Tue, 21-Sep-2021 7:53pm CDT
Few Clouds
Few Clouds
 Wind from NW
Wind: NW 9 mph , 15 km/h
Temperature: 82°F , 28°C
Dew Point: 52°F , 11°C
Humidity: 35%
Barometer: 30.04 inHg , 1017.3 hPa
Clouds: Few Clouds
Visibility: 10 miles , 16 km
Cloud details: Few Clouds 3000 ft
Few Clouds 20000 ft
2021/09/22 00:53 KOAK 220053Z 32008KT 10SM FEW030 FEW200 28/11 A3004 RMK AO2 SLP171 FU FEW030 T02780111
KSQL - San Carlos Airpo, California, USA
Distance from station: NW 21mi, 34km
Updated: Tue, 21-Sep-2021 8:47pm CDT
Clear
Clear
 Wind from W
Wind: W 7 mph , 11 km/h
Temperature: 82°F , 28°C
Dew Point: 50°F , 10°C
Humidity: 32%
Barometer: 30.03 inHg , 1016.9 hPa
Clouds: Clear
Visibility: 10 miles , 16 km
2021/09/22 01:47 KSQL 220147Z 27006KT 10SM CLR 28/10 A3003
 
KSFO - San Francisco, California, USA
Distance from station: NW 30mi, 49km
Updated: Tue, 21-Sep-2021 7:56pm CDT
Few Clouds
Few Clouds
 Wind from NW
Wind: NW 12 mph , 19 km/h
Temperature: 84°F , 29°C
Dew Point: 48°F , 9°C
Humidity: 29%
Barometer: 30.02 inHg , 1016.6 hPa
Clouds: Few Clouds
Visibility: 10 miles , 16 km
Cloud details: Few Clouds 20000 ft
2021/09/22 00:56 KSFO 220056Z 31010KT 10SM FEW200 29/09 A3002 RMK AO2 SLP166 T02940094
KE16 - San Martin, California, USA
Distance from station: ESE 27mi, 43km
Updated: Tue, 21-Sep-2021 8:35pm CDT
Clear
Clear
 Wind from SE
Wind: SE 12 mph , 19 km/h
Temperature: 81°F , 27°C
Dew Point: 52°F , 11°C
Humidity: 37%
Barometer: 30.06 inHg , 1017.9 hPa
Clouds: Clear
Visibility: 10 miles , 16 km
2021/09/22 01:35 KE16 220135Z AUTO 14010KT 10SM CLR 27/11 A3006 RMK AO2 PWINO PNO
 
KWVI - Watsonville, California, USA
Distance from station: SSE 27mi, 44km
Updated: Tue, 21-Sep-2021 7:53pm CDT
Clear
Clear
 Wind from SW
Wind: SW 6 mph , 9 km/h
Temperature: 72°F , 22°C
Dew Point: 59°F , 15°C
Humidity: 65%
Barometer: 30.07 inHg , 1018.3 hPa
Clouds: Clear
Visibility: 10 miles , 16 km
2021/09/22 00:53 KWVI 220053Z AUTO 23005KT 10SM CLR 22/15 A3007 RMK AO2 SLP182 T02170150
KHAF - Half Moon Bay, California, USA
Distance from station: WNW 31mi, 50km
Updated: Tue, 21-Sep-2021 8:35pm CDT
Clear
Clear
 Wind from S
Wind: S 8 mph , 13 km/h
Temperature: 64°F , 18°C
Dew Point: 59°F , 15°C
Humidity: 83%
Barometer: 30.07 inHg , 1018.3 hPa
Clouds: Clear
Visibility: 7 miles , 11 km
2021/09/22 01:35 KHAF 220135Z AUTO 17007KT 7SM CLR 18/15 A3007 RMK AO2 PWINO
 
KHWD - Hayward, California, USA
Distance from station: N 28mi, 44km
Updated: Tue, 21-Sep-2021 7:54pm CDT
Clear
Clear
 Wind from WNW
Wind: WNW 12 mph , 19 km/h
Temperature: 84°F , 29°C
Dew Point: 50°F , 10°C
Humidity: 31%
Barometer: 30.02 inHg , 1016.6 hPa
Clouds: Clear
Visibility: 10 miles , 16 km
2021/09/22 00:54 KHWD 220054Z 30010KT 10SM CLR 29/10 A3002 RMK AO2 SLP175 T02890100
KLVK - Livermore, California, USA
Distance from station: NNE 31mi, 51km
Updated: Tue, 21-Sep-2021 7:53pm CDT
Clear
Clear
 Wind from ENE
Wind: ENE 7 mph , 11 km/h
Temperature: 93°F , 34°C
Dew Point: 46°F , 8°C
Humidity: 20%
Barometer: 30.01 inHg , 1016.3 hPa
Clouds: Clear
Visibility: 10 miles , 16 km
2021/09/22 00:53 KLVK 220053Z 07006KT 10SM CLR 34/08 A3001 RMK AO2 SLP158 T03390083